< < Back
Terminal Aerodrome Forecast


Current Version              Previous Versions:   1  2  3  4  5  6  7  8  9  

Terminal Aerodrome Forecast

935
FTUS42 KMLB 300539
TAFDAB
TAF
KDAB 300539Z 3006/3106 00000KT P6SM SKC
     FM301500 23007KT P6SM FEW150
     FM310000 24004KT P6SM FEW050=



Latest METAR

715
SAUS80 KWBC 302300 RRB
MTRDAB
METAR KDAB 302253Z 24004KT 10SM SCT070 SCT200 24/11 A3013 RMK AO2 SLP202
T02390106


USA.gov is the U.S. government's official web portal to all federal, state and local government web resources and services.